createdAt,value
2018-03-15T00:01:59.028Z,10.10
2018-03-15T00:04:32.059Z,10.87
2018-03-15T00:07:00.272Z,11.67
2018-03-15T00:09:27.756Z,11.33
2018-03-15T00:11:55.204Z,11.90
2018-03-15T00:14:22.639Z,11.47
2018-03-15T00:16:50.139Z,11.80
2018-03-15T00:19:17.584Z,11.90
2018-03-15T00:21:45.015Z,12.47
2018-03-15T00:24:13.239Z,10.60
2018-03-15T00:26:40.679Z,10.27
2018-03-15T00:29:08.172Z,11.87
2018-03-15T00:31:35.607Z,11.30
2018-03-15T00:34:03.084Z,11.07
2018-03-15T00:36:30.524Z,12.27
2018-03-15T00:38:58.023Z,10.87
2018-03-15T00:41:25.474Z,10.57
2018-03-15T00:43:52.915Z,11.10
2018-03-15T00:46:20.372Z,11.43
2018-03-15T00:48:47.897Z,11.30
2018-03-15T00:51:15.397Z,11.77
2018-03-15T00:53:42.824Z,11.63
2018-03-15T00:56:11.044Z,10.63
2018-03-15T00:58:38.519Z,11.43
2018-03-15T01:01:05.960Z,11.27
2018-03-15T01:03:33.446Z,11.30
2018-03-15T01:06:00.884Z,11.70
2018-03-15T01:08:28.368Z,10.90
2018-03-15T01:10:55.808Z,10.57
2018-03-15T01:13:23.260Z,12.50
2018-03-15T01:15:50.767Z,10.50
2018-03-15T01:18:18.211Z,9.90
2018-03-15T01:20:45.672Z,12.20
2018-03-15T01:23:13.131Z,11.20
2018-03-15T01:25:40.587Z,12.00
2018-03-15T01:28:08.065Z,10.80
2018-03-15T01:30:35.504Z,11.90
2018-03-15T01:33:02.952Z,13.27
2018-03-15T01:35:30.395Z,11.53
2018-03-15T01:37:58.600Z,11.80
2018-03-15T01:40:26.082Z,13.97
2018-03-15T01:42:53.519Z,11.43
2018-03-15T01:45:20.973Z,11.97
2018-03-15T01:47:48.412Z,12.00
2018-03-15T01:50:16.649Z,12.40
2018-03-15T01:52:44.098Z,12.40
2018-03-15T01:55:11.542Z,10.40
2018-03-15T01:57:38.971Z,12.10
2018-03-15T02:00:07.203Z,10.70
2018-03-15T02:02:34.668Z,13.07
2018-03-15T02:05:02.133Z,12.60
2018-03-15T02:07:29.592Z,11.77
2018-03-15T02:09:57.158Z,11.80
2018-03-15T02:12:24.728Z,11.63
2018-03-15T02:14:52.158Z,13.53
2018-03-15T02:17:19.591Z,11.97
2018-03-15T02:19:47.799Z,10.93
2018-03-15T02:22:15.256Z,10.90
2018-03-15T02:24:42.744Z,12.47
2018-03-15T02:27:10.203Z,10.93
2018-03-15T02:29:37.742Z,12.23
2018-03-15T02:32:05.159Z,13.23
2018-03-15T02:34:32.601Z,12.20
2018-03-15T02:37:00.038Z,12.17
2018-03-15T02:39:27.502Z,13.30
2018-03-15T02:41:55.775Z,13.00
2018-03-15T02:44:23.228Z,12.17
2018-03-15T02:46:50.711Z,10.73
2018-03-15T02:49:18.164Z,11.47
2018-03-15T02:51:45.599Z,12.13
2018-03-15T02:54:13.096Z,11.67
2018-03-15T02:56:40.557Z,11.20
2018-03-15T02:59:08.027Z,11.50
2018-03-15T03:01:35.457Z,11.57
2018-03-15T03:04:02.888Z,12.00
2018-03-15T03:06:31.115Z,10.43
2018-03-15T03:08:58.573Z,11.50
2018-03-15T03:11:26.050Z,12.30
2018-03-15T03:13:53.479Z,11.27
2018-03-15T03:16:20.967Z,12.00
2018-03-15T03:18:48.395Z,11.17
2018-03-15T03:21:15.835Z,11.77
2018-03-15T03:23:44.063Z,11.80
2018-03-15T03:26:11.533Z,10.60
2018-03-15T03:28:38.964Z,12.37
2018-03-15T03:31:06.448Z,11.57
2018-03-15T03:33:33.891Z,10.63
2018-03-15T03:36:01.343Z,10.13
2018-03-15T03:38:28.836Z,10.07
2018-03-15T03:40:56.299Z,11.60
2018-03-15T03:43:23.747Z,10.97
2018-03-15T03:45:51.216Z,11.03
2018-03-15T03:48:18.762Z,12.50
2018-03-15T03:50:46.188Z,11.77
2018-03-15T03:53:14.414Z,11.40
2018-03-15T03:55:41.843Z,10.07
2018-03-15T03:58:09.320Z,10.63
2018-03-15T04:00:36.812Z,11.90
2018-03-15T04:03:04.273Z,11.67
2018-03-15T04:05:31.731Z,10.60
2018-03-15T04:07:59.188Z,10.17
2018-03-15T04:10:26.656Z,11.00
2018-03-15T04:12:54.091Z,10.13
2018-03-15T04:15:21.557Z,10.70
2018-03-15T04:17:48.991Z,11.03
2018-03-15T04:20:17.237Z,11.47
2018-03-15T04:22:44.680Z,11.67
2018-03-15T04:25:12.133Z,11.33
2018-03-15T04:27:39.601Z,9.80
2018-03-15T04:30:07.047Z,10.10
2018-03-15T04:32:34.480Z,11.10
2018-03-15T04:35:01.981Z,9.30
2018-03-15T04:37:29.440Z,10.00
2018-03-15T04:39:56.877Z,9.67
2018-03-15T04:42:24.316Z,10.73
2018-03-15T04:44:52.540Z,10.73
2018-03-15T04:47:20.003Z,11.80
2018-03-15T04:49:47.444Z,9.60
2018-03-15T04:52:14.888Z,10.10
2018-03-15T04:54:42.323Z,10.87
2018-03-15T04:57:09.846Z,9.87
2018-03-15T04:59:37.392Z,11.07
2018-03-15T05:02:04.820Z,9.80
2018-03-15T05:04:33.056Z,9.73
2018-03-15T05:07:00.624Z,10.70
2018-03-15T05:09:28.059Z,10.70
2018-03-15T05:11:55.500Z,10.60
2018-03-15T05:14:23.716Z,10.27
2018-03-15T05:16:51.199Z,9.90
2018-03-15T05:19:18.776Z,9.40
2018-03-15T05:21:46.203Z,9.93
2018-03-15T05:24:13.672Z,10.93
2018-03-15T05:26:41.128Z,10.33
2018-03-15T05:29:08.576Z,11.07
2018-03-15T05:31:36.011Z,8.43
2018-03-15T05:34:04.224Z,9.03
2018-03-15T05:36:31.800Z,9.37
2018-03-15T05:38:59.257Z,9.93
2018-03-15T05:41:26.716Z,10.93
2018-03-15T05:43:54.156Z,9.77
2018-03-15T05:46:21.636Z,8.03
2018-03-15T05:48:49.063Z,8.47
2018-03-15T05:51:16.569Z,8.33
2018-03-15T05:53:44.036Z,8.90
2018-03-15T05:56:11.480Z,10.17
2018-03-15T05:58:38.908Z,9.40
2018-03-15T06:01:06.354Z,8.90
2018-03-15T06:03:34.619Z,8.97
2018-03-15T06:06:02.059Z,8.70
2018-03-15T06:08:29.491Z,8.40
2018-03-15T06:10:56.936Z,10.50
2018-03-15T06:13:24.456Z,8.33
2018-03-15T06:15:52.727Z,10.40
2018-03-15T06:18:20.176Z,8.97
2018-03-15T06:20:47.623Z,9.80
2018-03-15T06:23:15.111Z,8.90
2018-03-15T06:25:42.632Z,10.00
2018-03-15T06:28:10.055Z,9.70
2018-03-15T06:30:38.260Z,9.83
2018-03-15T06:33:05.702Z,8.83
2018-03-15T06:35:33.938Z,10.13
2018-03-15T06:38:01.379Z,10.20
2018-03-15T06:40:28.855Z,8.90
2018-03-15T06:42:56.318Z,10.20
2018-03-15T06:45:23.755Z,9.87
2018-03-15T06:47:51.192Z,9.73
2018-03-15T06:50:19.424Z,8.47
2018-03-15T06:52:46.875Z,9.07
2018-03-15T06:55:14.317Z,9.10
2018-03-15T06:57:41.780Z,9.87
2018-03-15T07:00:09.264Z,8.17
2018-03-15T07:02:36.805Z,9.30
2018-03-15T07:05:04.219Z,9.40
2018-03-15T07:07:31.661Z,10.10
2018-03-15T07:09:59.087Z,9.63
2018-03-15T07:12:26.572Z,10.47
2018-03-15T07:14:54.010Z,9.53
2018-03-15T07:17:21.472Z,9.83
2018-03-15T07:19:49.056Z,9.07
2018-03-15T07:22:16.523Z,9.63
2018-03-15T07:24:43.959Z,10.20
2018-03-15T07:27:11.393Z,9.40
2018-03-15T07:29:40.622Z,9.60
2018-03-15T07:32:09.600Z,10.20
2018-03-15T07:34:37.101Z,9.30
2018-03-15T07:37:04.575Z,10.20
2018-03-15T07:39:32.021Z,9.73
2018-03-15T07:41:59.463Z,9.37
2018-03-15T07:44:26.907Z,9.80
2018-03-15T07:46:54.417Z,9.67
2018-03-15T07:49:21.871Z,9.33
2018-03-15T07:51:49.300Z,9.47
2018-03-15T07:54:16.739Z,9.20
2018-03-15T07:56:44.976Z,10.73
2018-03-15T07:59:12.439Z,8.33
2018-03-15T08:01:39.891Z,9.97
2018-03-15T08:04:07.323Z,9.77
2018-03-15T08:06:34.767Z,9.43
2018-03-15T08:09:02.976Z,9.80
2018-03-15T08:11:30.445Z,8.77
2018-03-15T08:13:57.922Z,9.50
2018-03-15T08:16:25.359Z,9.00
2018-03-15T08:18:52.920Z,9.30
2018-03-15T08:21:20.404Z,10.00
2018-03-15T08:23:47.843Z,10.30
2018-03-15T08:26:15.305Z,9.77
2018-03-15T08:28:42.755Z,9.30
2018-03-15T08:31:10.251Z,10.37
2018-03-15T08:33:37.691Z,9.90
2018-03-15T08:36:05.180Z,9.83
2018-03-15T08:38:32.624Z,10.30
2018-03-15T08:41:00.062Z,10.20
2018-03-15T08:43:27.563Z,10.03
2018-03-15T08:45:55.004Z,9.73
2018-03-15T08:48:22.453Z,9.53
2018-03-15T08:50:49.944Z,10.17
2018-03-15T08:53:17.396Z,10.13
2018-03-15T08:55:44.841Z,10.50
2018-03-15T08:58:12.285Z,10.20
2018-03-15T09:00:39.792Z,11.23
2018-03-15T09:03:07.236Z,9.57
2018-03-15T09:05:34.712Z,9.87
2018-03-15T09:08:02.156Z,9.60
2018-03-15T09:10:29.632Z,9.13
2018-03-15T09:12:57.091Z,10.40
2018-03-15T09:15:24.532Z,9.80
2018-03-15T09:17:51.972Z,9.33
2018-03-15T09:20:20.201Z,9.57
2018-03-15T09:22:47.640Z,10.00
2018-03-15T09:25:15.116Z,10.10
2018-03-15T09:27:42.584Z,9.07
2018-03-15T09:30:10.123Z,9.23
2018-03-15T09:32:37.546Z,8.60
2018-03-15T09:35:05.767Z,8.83
2018-03-15T09:37:33.191Z,9.23
2018-03-15T09:40:01.412Z,9.17
2018-03-15T09:42:28.843Z,9.30
2018-03-15T09:44:56.304Z,9.37
2018-03-15T09:47:24.523Z,8.80
2018-03-15T09:49:51.956Z,9.80
2018-03-15T09:52:19.447Z,8.50
2018-03-15T09:54:46.888Z,9.47
2018-03-15T09:57:14.335Z,8.40
2018-03-15T09:59:41.764Z,8.90
2018-03-15T10:02:09.216Z,8.40
2018-03-15T10:04:36.647Z,8.60
2018-03-15T10:07:04.190Z,9.13
2018-03-15T10:09:31.625Z,8.40
2018-03-15T10:11:59.855Z,8.10
2018-03-15T10:14:27.316Z,9.40
2018-03-15T10:16:54.760Z,7.67
2018-03-15T10:19:22.244Z,8.90
2018-03-15T10:21:49.839Z,8.77
2018-03-15T10:24:17.240Z,8.43
2018-03-15T10:26:44.732Z,8.47
2018-03-15T10:29:12.194Z,8.73
2018-03-15T10:31:39.667Z,7.97
2018-03-15T10:34:07.111Z,9.87
2018-03-15T10:36:34.576Z,7.33
2018-03-15T10:39:02.021Z,8.03
2018-03-15T10:41:29.454Z,7.50
2018-03-15T10:43:56.960Z,8.20
2018-03-15T10:46:24.394Z,8.80
2018-03-15T10:48:51.860Z,9.33
2018-03-15T10:51:19.339Z,8.13
2018-03-15T10:53:46.805Z,8.60
2018-03-15T10:56:14.274Z,8.87
2018-03-15T10:58:41.740Z,9.20
2018-03-15T11:01:09.175Z,7.73
2018-03-15T11:03:42.427Z,7.97
2018-03-15T11:06:10.634Z,9.00
2018-03-15T11:08:38.088Z,9.07
2018-03-15T11:11:05.578Z,7.40
2018-03-15T11:13:33.088Z,8.10
2018-03-15T11:16:00.488Z,8.83
2018-03-15T11:18:27.953Z,9.07
2018-03-15T11:20:55.411Z,9.03
2018-03-15T11:23:22.893Z,8.30
2018-03-15T11:25:50.338Z,9.10
2018-03-15T11:28:17.823Z,9.60
2018-03-15T11:30:45.298Z,8.70
2018-03-15T11:33:12.732Z,8.80
2018-03-15T11:35:40.191Z,8.70
2018-03-15T11:38:07.637Z,8.90
2018-03-15T11:40:35.197Z,8.73
2018-03-15T11:43:02.684Z,9.00
2018-03-15T11:45:30.134Z,8.70
2018-03-15T11:47:57.563Z,8.93
2018-03-15T11:50:25.076Z,7.90
2018-03-15T11:52:52.631Z,8.50
2018-03-15T11:55:20.087Z,8.30
2018-03-15T11:57:47.651Z,7.40
2018-03-15T12:00:15.100Z,8.40
2018-03-15T12:02:42.576Z,8.20
2018-03-15T12:05:10.118Z,8.37
2018-03-15T12:07:37.666Z,7.40
2018-03-15T12:10:05.175Z,8.37
2018-03-15T12:12:32.628Z,7.80
2018-03-15T12:15:00.065Z,7.30
2018-03-15T12:17:27.520Z,8.40
2018-03-15T12:19:54.953Z,6.97
2018-03-15T12:22:23.159Z,7.60
2018-03-15T12:24:50.600Z,7.80
2018-03-15T12:27:18.837Z,7.63
2018-03-15T12:29:46.296Z,7.70
2018-03-15T12:32:13.798Z,7.70
2018-03-15T12:34:41.222Z,8.03
2018-03-15T12:37:08.668Z,7.47
2018-03-15T12:39:36.099Z,7.70
2018-03-15T12:42:03.550Z,8.57
2018-03-15T12:44:31.786Z,7.70
2018-03-15T12:46:59.248Z,7.60
2018-03-15T12:49:26.705Z,9.17
2018-03-15T12:51:54.136Z,7.53
2018-03-15T12:54:21.620Z,7.73
2018-03-15T12:56:49.062Z,8.33
2018-03-15T12:59:16.544Z,7.43
2018-03-15T13:01:44.008Z,7.00
2018-03-15T13:04:11.455Z,7.87
2018-03-15T13:06:38.904Z,8.57
2018-03-15T13:09:06.396Z,8.10
2018-03-15T13:11:33.860Z,6.80
2018-03-15T13:14:01.312Z,6.17
2018-03-15T13:16:28.785Z,7.80
2018-03-15T13:18:56.350Z,6.20
2018-03-15T13:21:23.780Z,7.60
2018-03-15T13:23:51.359Z,7.40
2018-03-15T13:26:18.816Z,7.27
2018-03-15T13:28:46.283Z,7.57
2018-03-15T13:31:13.752Z,6.60
2018-03-15T13:33:41.215Z,6.37
2018-03-15T13:36:08.656Z,6.83
2018-03-15T13:38:36.095Z,7.30
2018-03-15T13:41:03.546Z,6.73
2018-03-15T13:43:31.748Z,7.17
2018-03-15T13:45:59.240Z,6.90
2018-03-15T13:48:26.735Z,7.60
2018-03-15T13:50:54.129Z,7.00
2018-03-15T13:53:21.615Z,6.90
2018-03-15T13:55:49.076Z,7.30
2018-03-15T13:58:16.544Z,6.77
2018-03-15T14:00:43.999Z,6.53
2018-03-15T14:03:11.442Z,6.30
2018-03-15T14:05:39.048Z,7.10
2018-03-15T14:08:07.252Z,6.80
2018-03-15T14:10:35.483Z,7.23
2018-03-15T14:13:02.936Z,6.47
2018-03-15T14:15:31.167Z,6.50
2018-03-15T14:17:59.408Z,6.87
2018-03-15T14:20:26.855Z,6.23
2018-03-15T14:22:54.308Z,5.97
2018-03-15T14:25:21.740Z,6.50
2018-03-15T14:27:49.952Z,6.47
2018-03-15T14:30:17.387Z,6.60
2018-03-15T14:32:44.828Z,6.30
2018-03-15T14:35:13.060Z,7.03
2018-03-15T14:37:40.512Z,7.10
2018-03-15T14:40:07.997Z,7.17
2018-03-15T14:42:35.446Z,7.07
2018-03-15T14:45:02.885Z,6.00
2018-03-15T14:47:30.322Z,6.40
2018-03-15T14:49:58.567Z,6.50
2018-03-15T14:52:26.034Z,6.70
2018-03-15T14:54:53.464Z,6.80
2018-03-15T14:57:20.957Z,6.63
2018-03-15T14:59:48.412Z,6.67
2018-03-15T15:02:15.853Z,6.50
2018-03-15T15:04:43.312Z,6.90
2018-03-15T15:07:10.808Z,6.83
2018-03-15T15:09:38.253Z,6.83
2018-03-15T15:12:05.721Z,7.13
2018-03-15T15:14:33.180Z,6.23
2018-03-15T15:17:00.632Z,7.07
2018-03-15T15:19:28.169Z,6.60
2018-03-15T15:21:55.600Z,6.83
2018-03-15T15:24:23.909Z,8.03
2018-03-15T15:26:51.404Z,7.83
2018-03-15T15:29:18.959Z,6.77
2018-03-15T15:31:46.401Z,6.67
2018-03-15T15:34:13.839Z,7.67
2018-03-15T15:36:41.283Z,7.77
2018-03-15T15:39:09.505Z,7.53
2018-03-15T15:41:36.984Z,7.40
2018-03-15T15:44:04.423Z,9.70
2018-03-15T15:46:31.868Z,8.10
2018-03-15T15:48:59.299Z,8.20
2018-03-15T15:51:26.743Z,9.30
2018-03-15T15:53:54.188Z,9.07
2018-03-15T15:56:21.652Z,9.47
2018-03-15T15:58:49.145Z,8.67
2018-03-15T16:01:16.664Z,8.57
2018-03-15T16:03:44.139Z,9.97
2018-03-15T16:06:11.585Z,9.63
2018-03-15T16:08:39.076Z,9.57
2018-03-15T16:11:06.524Z,9.80
2018-03-15T16:13:33.976Z,10.30
2018-03-15T16:16:01.427Z,11.27
2018-03-15T16:18:28.900Z,11.33
2018-03-15T16:20:56.347Z,11.30
2018-03-15T16:23:23.804Z,11.83
2018-03-15T16:25:51.304Z,10.70
2018-03-15T16:28:18.747Z,11.73
2018-03-15T16:30:46.230Z,11.50
2018-03-15T16:33:13.808Z,11.87
2018-03-15T16:35:41.252Z,12.23
2018-03-15T16:38:08.795Z,11.70
2018-03-15T16:40:36.248Z,12.00
2018-03-15T16:43:03.745Z,12.03
2018-03-15T16:45:31.176Z,12.27
2018-03-15T16:47:58.881Z,12.33
2018-03-15T16:50:26.493Z,11.53
2018-03-15T16:52:53.932Z,12.43
2018-03-15T16:55:22.155Z,12.63
2018-03-15T16:57:49.620Z,11.30
2018-03-15T17:00:17.103Z,11.87
2018-03-15T17:02:44.560Z,13.07
2018-03-15T17:05:12.185Z,13.10
2018-03-15T17:07:39.639Z,12.17
2018-03-15T17:10:07.084Z,12.17
2018-03-15T17:12:35.280Z,12.20
2018-03-15T17:15:02.847Z,13.03
2018-03-15T17:17:30.295Z,14.30
2018-03-15T17:19:57.753Z,12.77
2018-03-15T17:22:25.952Z,13.47
2018-03-15T17:24:53.421Z,13.30
2018-03-15T17:27:21.044Z,13.73
2018-03-15T17:29:48.511Z,13.30
2018-03-15T17:32:16.021Z,13.20
2018-03-15T17:34:43.469Z,14.33
2018-03-15T17:37:10.928Z,14.20
2018-03-15T17:39:38.412Z,12.70
2018-03-15T17:42:05.864Z,14.43
2018-03-15T17:44:33.343Z,14.57
2018-03-15T17:47:00.791Z,13.80
2018-03-15T17:49:28.333Z,13.60
2018-03-15T17:51:55.820Z,13.00
2018-03-15T17:54:23.283Z,15.10
2018-03-15T17:56:50.742Z,14.77
2018-03-15T17:59:18.187Z,14.97
2018-03-15T18:01:45.633Z,14.77
2018-03-15T18:04:13.100Z,13.60
2018-03-15T18:06:40.564Z,14.90
2018-03-15T18:09:08.052Z,15.70
2018-03-15T18:11:35.496Z,15.70
2018-03-15T18:14:02.944Z,14.20
2018-03-15T18:16:30.404Z,14.63
2018-03-15T18:18:57.849Z,13.20
2018-03-15T18:21:26.048Z,13.23
2018-03-15T18:23:53.609Z,14.17
2018-03-15T18:26:21.087Z,14.43
2018-03-15T18:28:48.543Z,14.60
2018-03-15T18:31:15.989Z,13.60
2018-03-15T18:33:43.432Z,14.57
2018-03-15T18:36:11.735Z,15.87
2018-03-15T18:38:39.174Z,15.17
2018-03-15T18:41:07.407Z,18.83
2018-03-15T18:43:35.065Z,17.60
2018-03-15T18:46:04.014Z,18.80
2018-03-15T18:48:32.249Z,17.63
2018-03-15T18:50:59.705Z,15.70
2018-03-15T18:53:27.164Z,16.20
2018-03-15T18:55:54.616Z,16.70
2018-03-15T18:58:22.163Z,15.50
2018-03-15T19:00:49.601Z,16.20
2018-03-15T19:03:17.823Z,16.37
2018-03-15T19:05:45.293Z,16.37
2018-03-15T19:08:12.747Z,16.90
2018-03-15T19:10:40.208Z,16.63
2018-03-15T19:13:07.703Z,16.73
2018-03-15T19:15:35.236Z,17.07
2018-03-15T19:18:02.677Z,16.57
2018-03-15T19:20:30.140Z,16.83
2018-03-15T19:22:57.575Z,16.77
2018-03-15T19:25:25.792Z,17.37
2018-03-15T19:27:53.336Z,18.23
2018-03-15T19:30:20.771Z,17.67
2018-03-15T19:32:48.985Z,18.80
2018-03-15T19:35:16.460Z,16.90
2018-03-15T19:37:43.929Z,17.70
2018-03-15T19:40:11.349Z,16.87
2018-03-15T19:42:38.856Z,17.07
2018-03-15T19:45:06.304Z,18.30
2018-03-15T19:47:33.871Z,17.43
2018-03-15T19:50:01.343Z,17.17
2018-03-15T19:52:28.776Z,18.90
2018-03-15T19:54:56.256Z,18.00
2018-03-15T19:57:23.798Z,18.83
2018-03-15T19:59:51.361Z,17.73
2018-03-15T20:02:18.844Z,19.07
2018-03-15T20:04:46.323Z,17.73
2018-03-15T20:07:13.928Z,19.03
2018-03-15T20:09:41.340Z,17.50
2018-03-15T20:12:08.792Z,18.37
2018-03-15T20:14:36.241Z,18.50
2018-03-15T20:17:03.671Z,20.00
2018-03-15T20:19:31.883Z,17.67
2018-03-15T20:21:59.329Z,17.57
2018-03-15T20:24:32.405Z,18.60
2018-03-15T20:26:59.907Z,19.70
2018-03-15T20:29:27.375Z,18.80
2018-03-15T20:31:54.909Z,19.17
2018-03-15T20:34:22.369Z,20.40
2018-03-15T20:36:49.808Z,19.07
2018-03-15T20:39:23.756Z,22.03
2018-03-15T20:41:51.219Z,20.20
2018-03-15T20:44:18.805Z,19.17
2018-03-15T20:46:51.820Z,19.93
2018-03-15T20:49:20.051Z,18.33
2018-03-15T20:51:47.504Z,21.03
2018-03-15T20:54:15.003Z,20.97
2018-03-15T20:56:42.555Z,20.77
2018-03-15T20:59:10.083Z,21.63
2018-03-15T21:01:37.511Z,21.63
2018-03-15T21:04:05.712Z,21.50
2018-03-15T21:06:33.151Z,20.87
2018-03-15T21:09:01.416Z,22.70
2018-03-15T21:11:28.864Z,20.57
2018-03-15T21:13:56.386Z,22.50
2018-03-15T21:16:23.835Z,20.57
2018-03-15T21:18:51.285Z,21.03
2018-03-15T21:21:19.492Z,22.30
2018-03-15T21:23:46.948Z,21.30
2018-03-15T21:26:14.431Z,22.63
2018-03-15T21:28:41.897Z,21.63
2018-03-15T21:31:09.364Z,22.20
2018-03-15T21:33:36.816Z,20.80
2018-03-15T21:36:04.284Z,21.80
2018-03-15T21:38:31.742Z,23.50
2018-03-15T21:40:59.182Z,24.37
2018-03-15T21:43:26.674Z,21.70
2018-03-15T21:45:54.114Z,21.60
2018-03-15T21:48:21.560Z,21.80
2018-03-15T21:50:49.060Z,21.07
2018-03-15T21:53:16.505Z,20.87
2018-03-15T21:55:43.948Z,22.17
2018-03-15T21:58:11.380Z,23.43
2018-03-15T22:00:39.598Z,22.33
2018-03-15T22:03:07.040Z,22.30
2018-03-15T22:05:34.545Z,22.80
2018-03-15T22:08:01.972Z,21.47
2018-03-15T22:10:29.455Z,24.83
2018-03-15T22:12:56.896Z,21.40
2018-03-15T22:15:24.384Z,21.83
2018-03-15T22:17:51.827Z,21.70
2018-03-15T22:20:19.272Z,22.10
2018-03-15T22:22:46.758Z,22.70
2018-03-15T22:25:14.207Z,21.80
2018-03-15T22:27:41.706Z,23.97
2018-03-15T22:30:09.143Z,21.30
2018-03-15T22:32:36.592Z,22.67
2018-03-15T22:35:04.044Z,23.20
2018-03-15T22:37:31.484Z,20.67
2018-03-15T22:39:59.684Z,21.10
2018-03-15T22:42:27.169Z,21.37
2018-03-15T22:44:54.603Z,23.83
2018-03-15T22:47:22.092Z,24.17
2018-03-15T22:49:49.536Z,21.87
2018-03-15T22:52:16.976Z,21.10
2018-03-15T22:54:44.484Z,21.30
2018-03-15T22:57:11.920Z,21.10
2018-03-15T22:59:39.367Z,22.10
2018-03-15T23:02:06.823Z,22.60
2018-03-15T23:04:34.320Z,21.80
2018-03-15T23:07:01.761Z,20.70
2018-03-15T23:09:29.248Z,20.43
2018-03-15T23:11:56.689Z,21.67
2018-03-15T23:14:24.128Z,20.23
2018-03-15T23:16:51.628Z,21.80
2018-03-15T23:19:19.077Z,21.60
2018-03-15T23:21:46.553Z,22.70
2018-03-15T23:24:14.004Z,23.57
2018-03-15T23:26:41.480Z,22.80
2018-03-15T23:29:09.060Z,20.50
2018-03-15T23:31:36.499Z,21.27
2018-03-15T23:34:03.960Z,22.53
2018-03-15T23:36:31.503Z,22.70
2018-03-15T23:38:58.939Z,21.00
2018-03-15T23:41:27.144Z,23.10
2018-03-15T23:43:54.633Z,20.97
2018-03-15T23:46:22.091Z,22.50
2018-03-15T23:48:49.660Z,22.00
2018-03-15T23:51:17.120Z,21.80
2018-03-15T23:53:44.556Z,22.67
2018-03-15T23:56:12.001Z,20.27
2018-03-15T23:58:39.427Z,22.60
